createdAt,value
2018-07-03T00:00:39.597Z,1.00
2018-07-03T00:03:07.913Z,1.03
2018-07-03T00:05:48.405Z,0.90
2018-07-03T00:08:16.720Z,0.80
2018-07-03T00:10:44.773Z,0.93
2018-07-03T00:13:13.096Z,1.10
2018-07-03T00:15:42.459Z,1.17
2018-07-03T00:18:10.957Z,0.80
2018-07-03T00:20:39.289Z,1.00
2018-07-03T00:23:07.568Z,0.80
2018-07-03T00:25:35.923Z,1.00
2018-07-03T00:28:17.354Z,1.03
2018-07-03T00:30:45.722Z,1.00
2018-07-03T00:33:14.049Z,0.90
2018-07-03T00:35:42.425Z,0.80
2018-07-03T00:38:10.760Z,1.03
2018-07-03T00:40:39.096Z,0.80
2018-07-03T00:43:07.496Z,1.10
2018-07-03T00:45:35.805Z,1.10
2018-07-03T00:48:04.193Z,0.90
2018-07-03T00:53:31.384Z,1.20
2018-07-03T00:55:59.731Z,1.17
2018-07-03T00:58:28.072Z,1.20
2018-07-03T01:00:56.412Z,1.30
2018-07-03T01:03:24.744Z,1.00
2018-07-03T01:05:53.130Z,0.90
2018-07-03T01:08:21.443Z,1.40
2018-07-03T01:10:49.771Z,1.13
2018-07-03T01:13:18.105Z,1.10
2018-07-03T01:16:08.984Z,1.33
2018-07-03T01:18:37.282Z,1.10
2018-07-03T01:21:05.617Z,1.30
2018-07-03T01:23:34.007Z,1.50
2018-07-03T01:26:02.597Z,1.20
2018-07-03T01:28:30.941Z,1.23
2018-07-03T01:30:59.254Z,1.13
2018-07-03T01:33:27.634Z,1.30
2018-07-03T01:35:56.020Z,1.10
2018-07-03T01:38:25.532Z,1.30
2018-07-03T01:40:53.835Z,1.50
2018-07-03T01:43:22.167Z,1.00
2018-07-03T01:45:50.465Z,1.40
2018-07-03T01:48:18.792Z,1.20
2018-07-03T01:50:47.212Z,1.20
2018-07-03T01:53:15.702Z,1.53
2018-07-03T01:55:44.044Z,1.17
2018-07-03T01:58:12.404Z,1.00
2018-07-03T02:00:54.761Z,1.07
2018-07-03T02:03:23.119Z,0.97
2018-07-03T02:05:51.845Z,1.30
2018-07-03T02:08:20.169Z,1.43
2018-07-03T02:10:48.508Z,1.30
2018-07-03T02:13:16.829Z,1.20
2018-07-03T02:15:45.129Z,1.40
2018-07-03T02:18:13.451Z,1.43
2018-07-03T02:20:41.822Z,1.20
2018-07-03T02:26:09.369Z,1.10
2018-07-03T02:28:37.713Z,1.10
2018-07-03T02:31:06.055Z,1.40
2018-07-03T02:33:34.627Z,1.20
2018-07-03T02:36:03.417Z,1.30
2018-07-03T02:38:32.188Z,1.47
2018-07-03T02:41:01.078Z,1.40
2018-07-03T02:43:29.598Z,1.40
2018-07-03T02:45:58.567Z,1.33
2018-07-03T02:48:27.635Z,1.10
2018-07-03T02:50:56.197Z,1.23
2018-07-03T02:53:24.509Z,1.60
2018-07-03T02:55:53.133Z,1.13
2018-07-03T02:58:21.573Z,1.30
2018-07-03T03:00:49.907Z,1.37
2018-07-03T03:03:18.250Z,1.30
2018-07-03T03:05:46.580Z,1.60
2018-07-03T03:08:15.074Z,1.30
2018-07-03T03:10:50.652Z,1.60
2018-07-03T03:13:19.338Z,1.10
2018-07-03T03:15:47.660Z,1.60
2018-07-03T03:18:15.752Z,1.30
2018-07-03T03:20:44.300Z,1.40
2018-07-03T03:23:12.683Z,1.43
2018-07-03T03:25:41.034Z,1.50
2018-07-03T03:28:09.346Z,1.50
2018-07-03T03:30:37.672Z,1.40
2018-07-03T03:33:09.674Z,1.27
2018-07-03T03:35:38.227Z,1.20
2018-07-03T03:38:06.709Z,1.77
2018-07-03T03:40:35.074Z,1.50
2018-07-03T03:43:03.494Z,1.27
2018-07-03T03:45:31.832Z,1.60
2018-07-03T03:47:59.922Z,1.50
2018-07-03T03:50:28.291Z,1.43
2018-07-03T03:52:56.607Z,1.30
2018-07-03T03:55:30.571Z,1.73
2018-07-03T03:57:58.915Z,1.40
2018-07-03T04:00:27.241Z,1.57
2018-07-03T04:02:55.556Z,1.60
2018-07-03T04:05:23.904Z,1.60
2018-07-03T04:07:52.258Z,1.50
2018-07-03T04:10:20.567Z,1.40
2018-07-03T04:12:48.916Z,1.50
2018-07-03T04:15:17.261Z,1.70
2018-07-03T04:18:06.004Z,1.87
2018-07-03T04:20:34.367Z,1.83
2018-07-03T04:23:02.740Z,1.40
2018-07-03T04:25:31.076Z,1.80
2018-07-03T04:27:59.485Z,1.80
2018-07-03T04:30:27.826Z,1.77
2018-07-03T04:32:56.182Z,1.60
2018-07-03T04:35:24.496Z,2.07
2018-07-03T04:37:52.843Z,2.10
2018-07-03T04:40:21.211Z,2.10
2018-07-03T04:42:49.553Z,1.73
2018-07-03T04:45:17.900Z,1.87
2018-07-03T04:47:46.214Z,1.77
2018-07-03T04:50:14.538Z,2.27
2018-07-03T04:52:42.972Z,2.00
2018-07-03T04:55:11.270Z,2.20
2018-07-03T04:57:39.613Z,2.37
2018-07-03T05:00:07.957Z,2.17
2018-07-03T05:05:36.800Z,2.17
2018-07-03T05:08:05.150Z,2.53
2018-07-03T05:10:33.488Z,2.50
2018-07-03T05:13:01.888Z,2.03
2018-07-03T05:15:30.220Z,2.50
2018-07-03T05:17:58.580Z,2.87
2018-07-03T05:20:26.909Z,2.33
2018-07-03T05:22:55.261Z,2.30
2018-07-03T05:25:23.628Z,2.40
2018-07-03T05:27:51.993Z,2.90
2018-07-03T05:30:20.340Z,2.67
2018-07-03T05:32:48.680Z,2.80
2018-07-03T05:35:17.006Z,3.10
2018-07-03T05:37:45.356Z,3.13
2018-07-03T05:40:13.688Z,3.10
2018-07-03T05:42:42.020Z,3.00
2018-07-03T05:45:10.384Z,2.90
2018-07-03T05:47:38.733Z,2.97
2018-07-03T05:50:17.534Z,2.97
2018-07-03T05:52:45.900Z,3.20
2018-07-03T05:55:14.256Z,3.20
2018-07-03T05:57:42.589Z,3.20
2018-07-03T06:00:10.939Z,3.63
2018-07-03T06:02:39.337Z,3.30
2018-07-03T06:05:07.681Z,3.60
2018-07-03T06:07:35.984Z,3.03
2018-07-03T06:10:04.828Z,3.60
2018-07-03T06:12:34.556Z,3.57
2018-07-03T06:15:02.976Z,3.47
2018-07-03T06:17:31.313Z,3.70
2018-07-03T06:19:59.702Z,3.40
2018-07-03T06:22:28.093Z,3.37
2018-07-03T06:24:56.466Z,3.40
2018-07-03T06:27:24.838Z,3.50
2018-07-03T06:29:53.243Z,3.80
2018-07-03T06:32:21.625Z,3.80
2018-07-03T06:37:56.512Z,4.50
2018-07-03T06:40:24.817Z,4.20
2018-07-03T06:42:53.157Z,3.83
2018-07-03T06:45:21.530Z,4.27
2018-07-03T06:47:49.909Z,4.23
2018-07-03T06:50:18.309Z,4.23
2018-07-03T06:52:46.694Z,4.30
2018-07-03T06:55:15.146Z,3.97
2018-07-03T06:57:43.498Z,3.90
2018-07-03T07:03:07.916Z,3.97
2018-07-03T07:05:36.319Z,3.90
2018-07-03T07:08:04.730Z,3.53
2018-07-03T07:10:33.128Z,3.90
2018-07-03T07:13:01.533Z,3.50
2018-07-03T07:15:29.944Z,4.07
2018-07-03T07:17:58.270Z,3.30
2018-07-03T07:20:26.658Z,4.00
2018-07-03T07:22:55.308Z,3.53
2018-07-03T07:25:31.621Z,3.30
2018-07-03T07:28:00.165Z,3.13
2018-07-03T07:30:28.968Z,3.10
2018-07-03T07:32:57.520Z,3.00
2018-07-03T07:35:25.891Z,3.10
2018-07-03T07:37:54.244Z,3.80
2018-07-03T07:40:22.315Z,2.90
2018-07-03T07:42:50.652Z,2.50
2018-07-03T07:45:18.985Z,2.90
2018-07-03T07:47:47.298Z,2.93
2018-07-03T07:50:15.649Z,2.77
2018-07-03T07:52:44.009Z,3.47
2018-07-03T07:55:12.341Z,2.70
2018-07-03T07:57:40.659Z,2.57
2018-07-03T08:00:08.979Z,2.67
2018-07-03T08:02:37.327Z,3.17
2018-07-03T08:05:06.131Z,2.57
2018-07-03T08:07:35.534Z,3.20
2018-07-03T08:10:04.074Z,2.47
2018-07-03T08:12:32.410Z,2.80
2018-07-03T08:15:00.812Z,3.10
2018-07-03T08:17:29.125Z,2.93
2018-07-03T08:19:57.501Z,1.90
2018-07-03T08:22:25.857Z,2.17
2018-07-03T08:24:54.254Z,2.47
2018-07-03T08:27:22.606Z,2.70
2018-07-03T08:30:09.114Z,2.37
2018-07-03T08:32:37.434Z,3.00
2018-07-03T08:35:05.768Z,2.30
2018-07-03T08:37:34.087Z,2.67
2018-07-03T08:40:02.404Z,2.60
2018-07-03T08:42:30.767Z,2.10
2018-07-03T08:44:59.110Z,2.20
2018-07-03T08:47:27.408Z,1.80
2018-07-03T08:49:55.738Z,1.67
2018-07-03T08:52:31.493Z,2.30
2018-07-03T08:54:59.890Z,2.17
2018-07-03T08:57:28.245Z,2.33
2018-07-03T08:59:56.646Z,1.97
2018-07-03T09:02:24.994Z,1.83
2018-07-03T09:04:53.317Z,1.80
2018-07-03T09:07:21.628Z,2.00
2018-07-03T09:09:49.689Z,1.93
2018-07-03T09:12:18.091Z,1.87
2018-07-03T09:14:56.256Z,1.77
2018-07-03T09:17:32.014Z,2.03
2018-07-03T09:20:01.469Z,1.60
2018-07-03T09:22:30.611Z,1.73
2018-07-03T09:24:58.944Z,1.50
2018-07-03T09:27:27.392Z,2.10
2018-07-03T09:29:55.754Z,1.73
2018-07-03T09:32:24.870Z,1.50
2018-07-03T09:34:53.181Z,1.40
2018-07-03T09:37:21.557Z,1.40
2018-07-03T09:39:49.881Z,1.30
2018-07-03T09:42:18.229Z,1.50
2018-07-03T09:44:46.529Z,1.60
2018-07-03T09:47:14.964Z,1.50
2018-07-03T09:49:43.155Z,1.50
2018-07-03T09:52:11.492Z,1.60
2018-07-03T09:54:40.011Z,1.20
2018-07-03T09:57:27.869Z,1.13
2018-07-03T09:59:56.390Z,2.03
2018-07-03T10:02:24.847Z,1.27
2018-07-03T10:04:53.207Z,1.00
2018-07-03T10:07:21.269Z,1.27
2018-07-03T10:09:49.630Z,1.20
2018-07-03T10:12:17.986Z,1.40
2018-07-03T10:14:46.325Z,1.17
2018-07-03T10:17:14.638Z,1.23
2018-07-03T10:19:44.539Z,1.33
2018-07-03T10:22:13.010Z,1.47
2018-07-03T10:24:41.447Z,1.43
2018-07-03T10:27:09.879Z,1.47
2018-07-03T10:29:38.268Z,2.10
2018-07-03T10:32:06.633Z,1.37
2018-07-03T10:34:35.000Z,1.30
2018-07-03T10:37:03.392Z,1.37
2018-07-03T10:39:31.745Z,1.70
2018-07-03T10:45:11.159Z,1.20
2018-07-03T10:47:39.550Z,1.30
2018-07-03T10:50:07.931Z,1.30
2018-07-03T10:52:36.315Z,1.17
2018-07-03T10:55:05.036Z,1.20
2018-07-03T10:57:33.520Z,1.30
2018-07-03T11:00:01.940Z,1.37
2018-07-03T11:02:30.328Z,1.47
2018-07-03T11:04:58.767Z,1.23
2018-07-03T11:07:30.706Z,1.50
2018-07-03T11:09:59.191Z,1.10
2018-07-03T11:12:27.531Z,1.30
2018-07-03T11:14:55.935Z,1.23
2018-07-03T11:17:24.301Z,1.30
2018-07-03T11:19:52.739Z,1.00
2018-07-03T11:22:21.025Z,1.50
2018-07-03T11:24:49.378Z,1.60
2018-07-03T11:27:17.770Z,1.70
2018-07-03T11:29:52.435Z,1.17
2018-07-03T11:32:20.782Z,1.40
2018-07-03T11:34:49.258Z,1.10
2018-07-03T11:37:17.654Z,1.30
2018-07-03T11:39:46.011Z,1.00
2018-07-03T11:42:14.403Z,1.07
2018-07-03T11:44:42.821Z,1.13
2018-07-03T11:47:11.165Z,1.10
2018-07-03T11:49:39.531Z,1.10
2018-07-03T11:52:07.968Z,1.57
2018-07-03T11:54:36.384Z,1.20
2018-07-03T11:57:04.794Z,1.20
2018-07-03T11:59:33.165Z,1.00
2018-07-03T12:02:01.548Z,1.20
2018-07-03T12:04:29.942Z,1.33
2018-07-03T12:06:58.374Z,1.40
2018-07-03T12:09:26.725Z,0.97
2018-07-03T12:11:54.847Z,1.50
2018-07-03T12:14:23.286Z,1.23
2018-07-03T12:16:51.703Z,1.20
2018-07-03T12:19:20.164Z,1.50
2018-07-03T12:21:48.523Z,1.60
2018-07-03T12:24:16.906Z,1.30
2018-07-03T12:26:45.064Z,1.20
2018-07-03T12:29:13.495Z,1.70
2018-07-03T12:31:41.855Z,1.53
2018-07-03T12:34:09.971Z,1.40
2018-07-03T12:36:38.468Z,1.60
2018-07-03T12:39:08.815Z,1.40
2018-07-03T12:41:37.357Z,1.30
2018-07-03T12:44:05.971Z,1.47
2018-07-03T12:46:34.398Z,1.70
2018-07-03T12:49:03.610Z,1.40
2018-07-03T12:51:32.080Z,1.53
2018-07-03T12:54:00.482Z,1.40
2018-07-03T12:56:28.654Z,1.40
2018-07-03T12:59:08.873Z,1.30
2018-07-03T13:01:37.244Z,1.30
2018-07-03T13:04:05.890Z,1.50
2018-07-03T13:06:34.240Z,1.77
2018-07-03T13:09:02.642Z,1.20
2018-07-03T13:11:31.013Z,1.60
2018-07-03T13:13:59.369Z,1.30
2018-07-03T13:16:27.721Z,1.30
2018-07-03T13:18:56.199Z,1.20
2018-07-03T13:21:28.099Z,1.70
2018-07-03T13:23:56.489Z,1.43
2018-07-03T13:26:24.915Z,1.67
2018-07-03T13:28:53.266Z,1.47
2018-07-03T13:31:21.749Z,1.50
2018-07-03T13:33:50.119Z,1.73
2018-07-03T13:36:18.574Z,1.37
2018-07-03T13:38:46.974Z,1.90
2018-07-03T13:41:15.372Z,1.53
2018-07-03T13:43:58.249Z,1.40
2018-07-03T13:46:26.304Z,1.80
2018-07-03T13:48:54.847Z,1.80
2018-07-03T13:51:23.227Z,1.80
2018-07-03T13:53:51.694Z,1.60
2018-07-03T13:56:20.071Z,1.50
2018-07-03T13:58:48.446Z,1.30
2018-07-03T14:01:16.872Z,1.50
2018-07-03T14:03:45.288Z,1.90
2018-07-03T14:06:21.451Z,1.97
2018-07-03T14:08:49.853Z,1.70
2018-07-03T14:11:18.254Z,1.90
2018-07-03T14:13:46.624Z,2.07
2018-07-03T14:16:15.025Z,2.27
2018-07-03T14:18:43.392Z,2.00
2018-07-03T14:21:11.716Z,1.73
2018-07-03T14:23:40.134Z,1.60
2018-07-03T14:26:08.578Z,1.80
2018-07-03T14:28:36.992Z,1.87
2018-07-03T14:31:05.473Z,1.83
2018-07-03T14:33:33.849Z,1.50
2018-07-03T14:36:02.213Z,2.07
2018-07-03T14:38:30.636Z,1.70
2018-07-03T14:40:59.062Z,1.53
2018-07-03T14:43:27.429Z,1.90
2018-07-03T14:45:55.767Z,2.13
2018-07-03T14:48:24.139Z,1.93
2018-07-03T14:50:52.573Z,1.90
2018-07-03T14:53:21.010Z,1.87
2018-07-03T14:55:49.374Z,1.97
2018-07-03T14:58:17.808Z,1.53
2018-07-03T15:00:46.193Z,1.60
2018-07-03T15:03:15.707Z,1.93
2018-07-03T15:05:44.303Z,1.63
2018-07-03T15:08:12.412Z,1.60
2018-07-03T15:10:53.693Z,1.47
2018-07-03T15:13:22.122Z,1.80
2018-07-03T15:15:50.660Z,1.80
2018-07-03T15:18:19.155Z,1.93
2018-07-03T15:20:47.526Z,1.57
2018-07-03T15:23:15.973Z,1.40
2018-07-03T15:25:44.422Z,2.07
2018-07-03T15:28:12.817Z,2.10
2018-07-03T15:30:41.195Z,1.80
2018-07-03T15:33:09.637Z,1.97
2018-07-03T15:35:38.051Z,2.00
2018-07-03T15:38:06.526Z,1.40
2018-07-03T15:40:34.907Z,1.77
2018-07-03T15:43:03.369Z,1.90
2018-07-03T15:45:31.835Z,1.73
2018-07-03T15:47:59.953Z,1.43
2018-07-03T15:50:28.376Z,2.03
2018-07-03T15:52:56.765Z,1.67
2018-07-03T15:55:25.182Z,1.80
2018-07-03T15:57:53.633Z,1.70
2018-07-03T16:00:21.983Z,1.87
2018-07-03T16:03:01.569Z,1.70
2018-07-03T16:05:41.080Z,1.60
2018-07-03T16:09:16.652Z,1.43
2018-07-03T16:11:45.063Z,1.60
2018-07-03T16:14:13.873Z,1.90
2018-07-03T16:17:04.812Z,1.50
2018-07-03T16:19:38.598Z,1.80
2018-07-03T16:22:07.040Z,1.70
2018-07-03T16:24:35.455Z,1.67
2018-07-03T16:27:03.890Z,1.40
2018-07-03T16:29:32.191Z,1.30
2018-07-03T16:32:00.551Z,1.50
2018-07-03T16:34:28.927Z,1.40
2018-07-03T16:36:56.980Z,1.70
2018-07-03T16:39:25.387Z,2.00
2018-07-03T16:41:53.747Z,1.53
2018-07-03T16:44:21.798Z,1.70
2018-07-03T16:46:50.242Z,2.10
2018-07-03T16:49:18.625Z,1.60
2018-07-03T16:51:47.103Z,2.60
2018-07-03T16:54:15.479Z,2.27
2018-07-03T16:56:43.881Z,2.23
2018-07-03T16:59:12.366Z,1.40
2018-07-03T17:01:54.874Z,2.00
2018-07-03T17:04:23.289Z,1.67
2018-07-03T17:06:51.647Z,1.60
2018-07-03T17:09:20.063Z,1.50
2018-07-03T17:11:48.414Z,1.60
2018-07-03T17:14:16.782Z,2.10
2018-07-03T17:16:45.215Z,1.57
2018-07-03T17:19:19.019Z,2.10
2018-07-03T17:21:47.377Z,1.47
2018-07-03T17:24:15.875Z,1.53
2018-07-03T17:26:44.302Z,2.00
2018-07-03T17:29:12.680Z,1.90
2018-07-03T17:31:41.038Z,1.80
2018-07-03T17:34:09.402Z,1.93
2018-07-03T17:36:37.779Z,2.90
2018-07-03T17:39:10.709Z,2.27
2018-07-03T17:41:50.257Z,2.43
2018-07-03T17:44:34.737Z,2.90
2018-07-03T17:47:03.120Z,2.23
2018-07-03T17:49:31.462Z,2.33
2018-07-03T17:51:59.896Z,2.63
2018-07-03T17:54:28.283Z,3.07
2018-07-03T17:56:56.647Z,3.50
2018-07-03T17:59:25.029Z,1.90
2018-07-03T18:01:53.323Z,2.50
2018-07-03T18:04:21.652Z,2.27
2018-07-03T18:09:49.751Z,2.30
2018-07-03T18:12:18.263Z,2.47
2018-07-03T18:14:46.713Z,2.40
2018-07-03T18:17:14.903Z,2.63
2018-07-03T18:19:44.403Z,2.30
2018-07-03T18:22:12.730Z,2.37
2018-07-03T18:24:41.058Z,2.47
2018-07-03T18:27:09.558Z,2.50
2018-07-03T18:29:38.447Z,2.70
2018-07-03T18:32:29.560Z,2.10
2018-07-03T18:34:58.280Z,2.30
2018-07-03T18:37:27.678Z,2.63
2018-07-03T18:39:56.183Z,2.60
2018-07-03T18:42:24.581Z,2.50
2018-07-03T18:44:53.913Z,2.50
2018-07-03T18:47:23.636Z,2.53
2018-07-03T18:49:52.634Z,2.90
2018-07-03T18:52:21.379Z,2.97
2018-07-03T18:54:56.447Z,2.37
2018-07-03T18:57:24.947Z,2.70
2018-07-03T18:59:53.469Z,3.07
2018-07-03T19:02:23.504Z,3.13
2018-07-03T19:04:53.990Z,2.60
2018-07-03T19:07:23.322Z,2.80
2018-07-03T19:09:52.659Z,2.80
2018-07-03T19:12:21.136Z,2.70
2018-07-03T19:14:50.824Z,2.77
2018-07-03T19:17:39.291Z,2.97
2018-07-03T19:20:07.681Z,2.70
2018-07-03T19:22:36.181Z,2.83
2018-07-03T19:25:05.213Z,3.30
2018-07-03T19:27:33.610Z,3.10
2018-07-03T19:30:02.590Z,2.87
2018-07-03T19:32:32.094Z,3.03
2018-07-03T19:35:00.567Z,3.37
2018-07-03T19:37:30.524Z,2.93
2018-07-03T19:39:59.324Z,2.50
2018-07-03T19:42:27.827Z,2.70
2018-07-03T19:44:57.392Z,3.10
2018-07-03T19:47:25.777Z,2.67
2018-07-03T19:49:54.707Z,3.60
2018-07-03T19:52:23.647Z,2.87
2018-07-03T19:54:52.110Z,3.30
2018-07-03T19:57:21.448Z,3.00
2018-07-03T19:59:50.320Z,3.30
2018-07-03T20:05:30.322Z,3.83
2018-07-03T20:07:58.678Z,3.37
2018-07-03T20:10:27.058Z,3.57
2018-07-03T20:12:55.405Z,3.30
2018-07-03T20:15:23.827Z,3.67
2018-07-03T20:17:52.229Z,3.07
2018-07-03T20:20:20.741Z,3.27
2018-07-03T20:22:49.254Z,3.10
2018-07-03T20:25:17.623Z,3.20
2018-07-03T20:27:52.577Z,3.67
2018-07-03T20:30:21.326Z,3.50
2018-07-03T20:32:50.340Z,3.63
2018-07-03T20:35:19.232Z,3.07
2018-07-03T20:37:57.733Z,3.37
2018-07-03T20:40:26.543Z,3.50
2018-07-03T20:42:57.039Z,3.70
2018-07-03T20:45:25.138Z,3.10
2018-07-03T20:47:55.447Z,3.00
2018-07-03T20:50:23.824Z,3.30
2018-07-03T20:52:52.380Z,3.00
2018-07-03T20:55:20.690Z,3.60
2018-07-03T20:57:48.986Z,3.77
2018-07-03T21:00:17.369Z,3.33
2018-07-03T21:02:45.697Z,3.47
2018-07-03T21:05:14.041Z,2.97
2018-07-03T21:07:42.395Z,3.60
2018-07-03T21:16:03.542Z,3.77
2018-07-03T21:18:31.875Z,3.77
2018-07-03T21:21:00.268Z,3.43
2018-07-03T21:23:28.561Z,3.17
2018-07-03T21:25:56.877Z,3.93
2018-07-03T21:28:25.760Z,3.50
2018-07-03T21:30:54.206Z,4.23
2018-07-03T21:33:22.584Z,4.03
2018-07-03T21:35:50.929Z,3.93
2018-07-03T21:38:33.682Z,3.67
2018-07-03T21:41:02.037Z,3.93
2018-07-03T21:43:30.381Z,3.63
2018-07-03T21:45:58.760Z,3.93
2018-07-03T21:48:27.124Z,3.90
2018-07-03T21:50:55.478Z,3.60
2018-07-03T21:53:23.849Z,3.80
2018-07-03T21:55:52.644Z,3.67
2018-07-03T21:58:20.966Z,3.73
2018-07-03T22:01:03.681Z,3.77
2018-07-03T22:03:32.047Z,3.80
2018-07-03T22:06:00.419Z,3.47
2018-07-03T22:08:30.371Z,3.70
2018-07-03T22:10:58.774Z,4.27
2018-07-03T22:13:27.124Z,4.40
2018-07-03T22:15:55.468Z,4.33
2018-07-03T22:18:23.808Z,4.03
2018-07-03T22:20:52.163Z,3.67
2018-07-03T22:23:24.122Z,4.33
2018-07-03T22:25:52.477Z,4.23
2018-07-03T22:28:20.819Z,4.53
2018-07-03T22:30:49.141Z,4.17
2018-07-03T22:33:17.509Z,3.93
2018-07-03T22:35:45.874Z,4.63
2018-07-03T22:38:14.182Z,4.30
2018-07-03T22:40:42.514Z,4.20
2018-07-03T22:43:10.825Z,4.47
2018-07-03T22:45:40.554Z,4.23
2018-07-03T22:48:08.885Z,4.53
2018-07-03T22:50:37.189Z,4.13
2018-07-03T22:53:05.528Z,4.60
2018-07-03T22:55:33.931Z,4.50
2018-07-03T22:58:02.276Z,4.03
2018-07-03T23:00:30.670Z,4.43
2018-07-03T23:02:59.001Z,4.33
2018-07-03T23:05:27.350Z,4.10
2018-07-03T23:10:56.657Z,4.33
2018-07-03T23:13:25.056Z,4.40
2018-07-03T23:15:53.407Z,4.27
2018-07-03T23:18:21.762Z,4.23
2018-07-03T23:20:50.112Z,4.47
2018-07-03T23:23:18.446Z,5.00
2018-07-03T23:25:46.783Z,4.77
2018-07-03T23:28:15.104Z,4.37
2018-07-03T23:30:43.441Z,4.53
2018-07-03T23:33:34.666Z,4.30
2018-07-03T23:36:03.000Z,4.03
2018-07-03T23:38:31.314Z,4.53
2018-07-03T23:40:59.408Z,4.33
2018-07-03T23:43:27.766Z,4.47
2018-07-03T23:45:56.229Z,4.33
2018-07-03T23:48:36.068Z,4.80
2018-07-03T23:51:16.532Z,4.30
2018-07-03T23:53:58.072Z,4.90
2018-07-03T23:56:38.955Z,4.37
2018-07-03T23:59:12.495Z,4.10
